sensor_id;sensor_type;location;lat;lon;timestamp;P1;durP1;ratioP1;P2;durP2;ratioP2
64986;SDS011;67903;52.108;9.358;2024-03-25T00:02:40;7.28;;;2.90;;
64986;SDS011;67903;52.108;9.358;2024-03-25T00:05:26;7.60;;;2.60;;
64986;SDS011;67903;52.108;9.358;2024-03-25T00:08:11;5.53;;;2.40;;
64986;SDS011;67903;52.108;9.358;2024-03-25T00:10:55;8.38;;;3.05;;
64986;SDS011;67903;52.108;9.358;2024-03-25T00:13:40;11.38;;;3.10;;
64986;SDS011;67903;52.108;9.358;2024-03-25T00:16:25;9.13;;;3.38;;
64986;SDS011;67903;52.108;9.358;2024-03-25T00:19:09;3.42;;;2.50;;
64986;SDS011;67903;52.108;9.358;2024-03-25T00:21:54;10.45;;;3.15;;
64986;SDS011;67903;52.108;9.358;2024-03-25T00:24:38;7.28;;;3.13;;
64986;SDS011;67903;52.108;9.358;2024-03-25T00:27:23;9.25;;;3.28;;
64986;SDS011;67903;52.108;9.358;2024-03-25T00:30:08;8.35;;;2.80;;
64986;SDS011;67903;52.108;9.358;2024-03-25T00:32:53;5.57;;;2.78;;
64986;SDS011;67903;52.108;9.358;2024-03-25T00:35:38;9.90;;;3.13;;
64986;SDS011;67903;52.108;9.358;2024-03-25T00:38:22;9.18;;;3.08;;
64986;SDS011;67903;52.108;9.358;2024-03-25T00:41:08;5.03;;;2.47;;
64986;SDS011;67903;52.108;9.358;2024-03-25T00:43:52;6.80;;;2.97;;
64986;SDS011;67903;52.108;9.358;2024-03-25T00:46:37;8.23;;;2.83;;
64986;SDS011;67903;52.108;9.358;2024-03-25T00:49:22;7.55;;;2.60;;
64986;SDS011;67903;52.108;9.358;2024-03-25T00:52:07;6.20;;;2.78;;
64986;SDS011;67903;52.108;9.358;2024-03-25T00:54:52;5.25;;;2.35;;
64986;SDS011;67903;52.108;9.358;2024-03-25T00:57:36;5.43;;;2.42;;
64986;SDS011;67903;52.108;9.358;2024-03-25T01:00:21;5.50;;;2.80;;
64986;SDS011;67903;52.108;9.358;2024-03-25T01:03:05;7.72;;;2.90;;
64986;SDS011;67903;52.108;9.358;2024-03-25T01:05:50;6.70;;;2.50;;
64986;SDS011;67903;52.108;9.358;2024-03-25T01:08:35;3.85;;;2.42;;
64986;SDS011;67903;52.108;9.358;2024-03-25T01:11:19;9.57;;;2.92;;
64986;SDS011;67903;52.108;9.358;2024-03-25T01:14:05;5.72;;;2.92;;
64986;SDS011;67903;52.108;9.358;2024-03-25T01:16:49;8.93;;;3.00;;
64986;SDS011;67903;52.108;9.358;2024-03-25T01:19:34;9.52;;;3.28;;
64986;SDS011;67903;52.108;9.358;2024-03-25T01:22:19;9.13;;;3.13;;
64986;SDS011;67903;52.108;9.358;2024-03-25T01:25:04;7.75;;;2.72;;
64986;SDS011;67903;52.108;9.358;2024-03-25T01:27:48;3.90;;;2.13;;
64986;SDS011;67903;52.108;9.358;2024-03-25T01:30:33;5.70;;;2.65;;
64986;SDS011;67903;52.108;9.358;2024-03-25T01:33:19;6.15;;;2.78;;
64986;SDS011;67903;52.108;9.358;2024-03-25T01:36:04;5.28;;;2.47;;
64986;SDS011;67903;52.108;9.358;2024-03-25T01:38:49;3.97;;;2.35;;
64986;SDS011;67903;52.108;9.358;2024-03-25T01:41:34;5.57;;;2.58;;
64986;SDS011;67903;52.108;9.358;2024-03-25T01:44:18;2.58;;;2.13;;
64986;SDS011;67903;52.108;9.358;2024-03-25T01:47:03;4.13;;;2.20;;
64986;SDS011;67903;52.108;9.358;2024-03-25T01:49:48;7.45;;;3.00;;
64986;SDS011;67903;52.108;9.358;2024-03-25T01:52:37;4.60;;;2.70;;
64986;SDS011;67903;52.108;9.358;2024-03-25T01:55:24;6.10;;;2.55;;
64986;SDS011;67903;52.108;9.358;2024-03-25T01:58:11;7.07;;;2.80;;
64986;SDS011;67903;52.108;9.358;2024-03-25T02:00:56;5.13;;;2.70;;
64986;SDS011;67903;52.108;9.358;2024-03-25T02:03:43;3.33;;;2.42;;
64986;SDS011;67903;52.108;9.358;2024-03-25T02:06:28;7.32;;;3.40;;
64986;SDS011;67903;52.108;9.358;2024-03-25T02:09:15;7.45;;;4.00;;
64986;SDS011;67903;52.108;9.358;2024-03-25T02:12:01;7.05;;;3.25;;
64986;SDS011;67903;52.108;9.358;2024-03-25T02:14:46;9.57;;;4.35;;
64986;SDS011;67903;52.108;9.358;2024-03-25T02:17:30;9.35;;;3.95;;
64986;SDS011;67903;52.108;9.358;2024-03-25T02:20:15;10.93;;;4.13;;
64986;SDS011;67903;52.108;9.358;2024-03-25T02:22:59;12.27;;;4.32;;
64986;SDS011;67903;52.108;9.358;2024-03-25T02:25:51;9.65;;;4.10;;
64986;SDS011;67903;52.108;9.358;2024-03-25T02:28:37;8.38;;;4.43;;
64986;SDS011;67903;52.108;9.358;2024-03-25T02:31:21;9.43;;;3.90;;
64986;SDS011;67903;52.108;9.358;2024-03-25T02:34:06;11.77;;;3.83;;
64986;SDS011;67903;52.108;9.358;2024-03-25T02:36:51;11.15;;;4.25;;
64986;SDS011;67903;52.108;9.358;2024-03-25T02:39:36;6.10;;;3.03;;
64986;SDS011;67903;52.108;9.358;2024-03-25T02:42:21;7.50;;;3.47;;
64986;SDS011;67903;52.108;9.358;2024-03-25T02:45:06;6.28;;;3.00;;
64986;SDS011;67903;52.108;9.358;2024-03-25T02:47:51;8.13;;;3.67;;
64986;SDS011;67903;52.108;9.358;2024-03-25T02:50:36;9.73;;;3.70;;
64986;SDS011;67903;52.108;9.358;2024-03-25T02:53:20;11.85;;;4.32;;
64986;SDS011;67903;52.108;9.358;2024-03-25T02:56:05;7.85;;;3.53;;
64986;SDS011;67903;52.108;9.358;2024-03-25T02:58:50;10.82;;;3.75;;
64986;SDS011;67903;52.108;9.358;2024-03-25T03:01:34;9.68;;;3.80;;
64986;SDS011;67903;52.108;9.358;2024-03-25T03:04:19;9.85;;;4.28;;
64986;SDS011;67903;52.108;9.358;2024-03-25T03:07:04;9.63;;;4.40;;
64986;SDS011;67903;52.108;9.358;2024-03-25T03:09:48;12.98;;;4.03;;
64986;SDS011;67903;52.108;9.358;2024-03-25T03:12:33;10.25;;;3.90;;
64986;SDS011;67903;52.108;9.358;2024-03-25T03:15:18;8.50;;;4.03;;
64986;SDS011;67903;52.108;9.358;2024-03-25T03:18:03;10.88;;;4.35;;
64986;SDS011;67903;52.108;9.358;2024-03-25T03:20:48;11.32;;;4.20;;
64986;SDS011;67903;52.108;9.358;2024-03-25T03:23:33;10.02;;;4.07;;
64986;SDS011;67903;52.108;9.358;2024-03-25T03:26:17;10.10;;;4.82;;
64986;SDS011;67903;52.108;9.358;2024-03-25T03:29:02;13.73;;;4.60;;
64986;SDS011;67903;52.108;9.358;2024-03-25T03:31:47;8.05;;;3.75;;
64986;SDS011;67903;52.108;9.358;2024-03-25T03:34:31;11.23;;;4.20;;
64986;SDS011;67903;52.108;9.358;2024-03-25T03:37:16;11.05;;;4.22;;
64986;SDS011;67903;52.108;9.358;2024-03-25T03:40:01;9.43;;;3.97;;
64986;SDS011;67903;52.108;9.358;2024-03-25T03:42:45;10.52;;;4.45;;
64986;SDS011;67903;52.108;9.358;2024-03-25T03:45:32;7.32;;;3.67;;
64986;SDS011;67903;52.108;9.358;2024-03-25T03:48:18;8.95;;;3.97;;
64986;SDS011;67903;52.108;9.358;2024-03-25T03:51:04;13.80;;;4.38;;
64986;SDS011;67903;52.108;9.358;2024-03-25T03:53:52;13.25;;;4.15;;
64986;SDS011;67903;52.108;9.358;2024-03-25T03:56:36;14.73;;;3.95;;
64986;SDS011;67903;52.108;9.358;2024-03-25T03:59:21;11.02;;;4.88;;
64986;SDS011;67903;52.108;9.358;2024-03-25T04:02:06;9.52;;;3.08;;
64986;SDS011;67903;52.108;9.358;2024-03-25T04:04:52;12.70;;;3.90;;
64986;SDS011;67903;52.108;9.358;2024-03-25T04:07:36;12.05;;;4.43;;
64986;SDS011;67903;52.108;9.358;2024-03-25T04:10:22;8.77;;;3.30;;
64986;SDS011;67903;52.108;9.358;2024-03-25T04:13:07;14.45;;;3.80;;
64986;SDS011;67903;52.108;9.358;2024-03-25T04:15:52;12.25;;;3.42;;
64986;SDS011;67903;52.108;9.358;2024-03-25T04:18:37;12.00;;;3.40;;
64986;SDS011;67903;52.108;9.358;2024-03-25T04:21:22;13.02;;;3.28;;
64986;SDS011;67903;52.108;9.358;2024-03-25T04:24:07;9.80;;;3.60;;
64986;SDS011;67903;52.108;9.358;2024-03-25T04:26:53;15.15;;;3.25;;
64986;SDS011;67903;52.108;9.358;2024-03-25T04:29:37;11.15;;;3.75;;
64986;SDS011;67903;52.108;9.358;2024-03-25T04:32:22;9.75;;;3.25;;
64986;SDS011;67903;52.108;9.358;2024-03-25T04:35:07;13.20;;;4.32;;
64986;SDS011;67903;52.108;9.358;2024-03-25T04:37:52;13.48;;;3.75;;
64986;SDS011;67903;52.108;9.358;2024-03-25T04:40:36;11.32;;;3.70;;
64986;SDS011;67903;52.108;9.358;2024-03-25T04:43:21;12.52;;;3.03;;
64986;SDS011;67903;52.108;9.358;2024-03-25T04:46:06;11.55;;;3.53;;
64986;SDS011;67903;52.108;9.358;2024-03-25T04:48:50;16.13;;;3.58;;
64986;SDS011;67903;52.108;9.358;2024-03-25T04:51:35;8.95;;;4.22;;
64986;SDS011;67903;52.108;9.358;2024-03-25T04:54:20;5.95;;;3.20;;
64986;SDS011;67903;52.108;9.358;2024-03-25T04:57:04;14.32;;;3.72;;
64986;SDS011;67903;52.108;9.358;2024-03-25T04:59:51;9.75;;;3.92;;
64986;SDS011;67903;52.108;9.358;2024-03-25T05:02:35;7.57;;;3.65;;
64986;SDS011;67903;52.108;9.358;2024-03-25T05:05:21;10.80;;;3.90;;
64986;SDS011;67903;52.108;9.358;2024-03-25T05:08:05;12.88;;;3.53;;
64986;SDS011;67903;52.108;9.358;2024-03-25T05:10:50;12.70;;;4.15;;
64986;SDS011;67903;52.108;9.358;2024-03-25T05:13:35;11.13;;;3.85;;
64986;SDS011;67903;52.108;9.358;2024-03-25T05:16:19;8.82;;;3.53;;
64986;SDS011;67903;52.108;9.358;2024-03-25T05:19:04;12.07;;;3.88;;
64986;SDS011;67903;52.108;9.358;2024-03-25T05:21:49;12.38;;;3.88;;
64986;SDS011;67903;52.108;9.358;2024-03-25T05:24:33;11.98;;;3.72;;
64986;SDS011;67903;52.108;9.358;2024-03-25T05:27:18;11.80;;;3.78;;
64986;SDS011;67903;52.108;9.358;2024-03-25T05:30:03;10.38;;;3.78;;
64986;SDS011;67903;52.108;9.358;2024-03-25T05:32:47;12.25;;;3.88;;
64986;SDS011;67903;52.108;9.358;2024-03-25T05:35:32;11.75;;;4.45;;
64986;SDS011;67903;52.108;9.358;2024-03-25T05:38:20;12.45;;;4.07;;
64986;SDS011;67903;52.108;9.358;2024-03-25T05:41:05;11.40;;;3.65;;
64986;SDS011;67903;52.108;9.358;2024-03-25T05:43:50;7.90;;;3.70;;
64986;SDS011;67903;52.108;9.358;2024-03-25T05:46:34;12.70;;;4.00;;
64986;SDS011;67903;52.108;9.358;2024-03-25T05:49:19;13.45;;;3.58;;
64986;SDS011;67903;52.108;9.358;2024-03-25T05:52:04;12.52;;;3.85;;
64986;SDS011;67903;52.108;9.358;2024-03-25T05:54:48;10.35;;;4.32;;
64986;SDS011;67903;52.108;9.358;2024-03-25T05:57:33;16.27;;;4.70;;
64986;SDS011;67903;52.108;9.358;2024-03-25T06:00:18;8.20;;;4.32;;
64986;SDS011;67903;52.108;9.358;2024-03-25T06:03:04;13.93;;;4.28;;
64986;SDS011;67903;52.108;9.358;2024-03-25T06:05:49;12.68;;;4.47;;
64986;SDS011;67903;52.108;9.358;2024-03-25T06:08:34;9.88;;;3.95;;
64986;SDS011;67903;52.108;9.358;2024-03-25T06:11:18;10.95;;;4.25;;
64986;SDS011;67903;52.108;9.358;2024-03-25T06:14:03;11.65;;;3.80;;
64986;SDS011;67903;52.108;9.358;2024-03-25T06:16:47;12.93;;;4.25;;
64986;SDS011;67903;52.108;9.358;2024-03-25T06:19:32;8.20;;;3.83;;
64986;SDS011;67903;52.108;9.358;2024-03-25T06:22:17;13.05;;;4.10;;
64986;SDS011;67903;52.108;9.358;2024-03-25T06:25:01;11.23;;;4.68;;
64986;SDS011;67903;52.108;9.358;2024-03-25T06:27:46;9.88;;;3.70;;
64986;SDS011;67903;52.108;9.358;2024-03-25T06:30:31;7.97;;;3.63;;
64986;SDS011;67903;52.108;9.358;2024-03-25T06:33:34;14.70;;;3.72;;
64986;SDS011;67903;52.108;9.358;2024-03-25T06:36:37;11.55;;;2.97;;
64986;SDS011;67903;52.108;9.358;2024-03-25T06:39:22;7.85;;;2.88;;
64986;SDS011;67903;52.108;9.358;2024-03-25T06:41:50;8.95;;;3.55;;
64986;SDS011;67903;52.108;9.358;2024-03-25T06:44:34;10.45;;;3.47;;
64986;SDS011;67903;52.108;9.358;2024-03-25T06:47:19;9.30;;;3.22;;
64986;SDS011;67903;52.108;9.358;2024-03-25T06:50:04;6.28;;;2.72;;
64986;SDS011;67903;52.108;9.358;2024-03-25T06:52:49;6.82;;;2.97;;
64986;SDS011;67903;52.108;9.358;2024-03-25T06:55:34;9.75;;;3.35;;
64986;SDS011;67903;52.108;9.358;2024-03-25T06:58:19;9.73;;;3.25;;
64986;SDS011;67903;52.108;9.358;2024-03-25T07:01:05;9.02;;;2.97;;
64986;SDS011;67903;52.108;9.358;2024-03-25T07:03:51;8.93;;;3.10;;
64986;SDS011;67903;52.108;9.358;2024-03-25T07:06:37;7.90;;;2.67;;
64986;SDS011;67903;52.108;9.358;2024-03-25T07:09:22;11.13;;;3.95;;
64986;SDS011;67903;52.108;9.358;2024-03-25T07:12:08;8.65;;;3.53;;
64986;SDS011;67903;52.108;9.358;2024-03-25T07:14:53;8.45;;;2.83;;
64986;SDS011;67903;52.108;9.358;2024-03-25T07:17:38;9.75;;;3.10;;
64986;SDS011;67903;52.108;9.358;2024-03-25T07:20:23;9.65;;;3.53;;
64986;SDS011;67903;52.108;9.358;2024-03-25T07:23:15;8.07;;;3.30;;
64986;SDS011;67903;52.108;9.358;2024-03-25T07:25:59;8.95;;;2.95;;
64986;SDS011;67903;52.108;9.358;2024-03-25T07:28:44;8.70;;;3.20;;
64986;SDS011;67903;52.108;9.358;2024-03-25T07:31:29;10.57;;;3.53;;
64986;SDS011;67903;52.108;9.358;2024-03-25T07:34:17;9.73;;;3.17;;
64986;SDS011;67903;52.108;9.358;2024-03-25T07:37:06;12.35;;;3.63;;
64986;SDS011;67903;52.108;9.358;2024-03-25T07:39:51;10.23;;;3.10;;
64986;SDS011;67903;52.108;9.358;2024-03-25T07:42:36;6.13;;;2.65;;
64986;SDS011;67903;52.108;9.358;2024-03-25T07:45:21;7.22;;;2.85;;
64986;SDS011;67903;52.108;9.358;2024-03-25T07:48:06;7.75;;;2.47;;
64986;SDS011;67903;52.108;9.358;2024-03-25T07:50:52;9.85;;;2.83;;
64986;SDS011;67903;52.108;9.358;2024-03-25T07:53:36;8.38;;;2.85;;
64986;SDS011;67903;52.108;9.358;2024-03-25T07:56:21;9.20;;;2.42;;
64986;SDS011;67903;52.108;9.358;2024-03-25T07:59:06;9.38;;;3.33;;
64986;SDS011;67903;52.108;9.358;2024-03-25T08:01:50;8.13;;;2.42;;
64986;SDS011;67903;52.108;9.358;2024-03-25T08:04:35;7.63;;;2.90;;
64986;SDS011;67903;52.108;9.358;2024-03-25T08:07:23;8.95;;;2.47;;
64986;SDS011;67903;52.108;9.358;2024-03-25T08:10:12;6.85;;;2.55;;
64986;SDS011;67903;52.108;9.358;2024-03-25T08:12:57;10.68;;;2.50;;
64986;SDS011;67903;52.108;9.358;2024-03-25T08:15:43;7.03;;;3.10;;
64986;SDS011;67903;52.108;9.358;2024-03-25T08:18:32;10.85;;;3.55;;
64986;SDS011;67903;52.108;9.358;2024-03-25T08:21:22;6.22;;;2.47;;
64986;SDS011;67903;52.108;9.358;2024-03-25T08:24:09;5.90;;;2.30;;
64986;SDS011;67903;52.108;9.358;2024-03-25T08:26:55;10.32;;;2.83;;
64986;SDS011;67903;52.108;9.358;2024-03-25T08:29:43;7.97;;;2.00;;
64986;SDS011;67903;52.108;9.358;2024-03-25T08:32:28;7.07;;;2.80;;
64986;SDS011;67903;52.108;9.358;2024-03-25T08:35:13;6.68;;;2.15;;
64986;SDS011;67903;52.108;9.358;2024-03-25T08:37:57;9.93;;;2.75;;
64986;SDS011;67903;52.108;9.358;2024-03-25T08:40:42;8.00;;;2.47;;
64986;SDS011;67903;52.108;9.358;2024-03-25T08:43:27;6.90;;;2.70;;
64986;SDS011;67903;52.108;9.358;2024-03-25T08:46:15;9.40;;;2.40;;
64986;SDS011;67903;52.108;9.358;2024-03-25T08:48:59;4.22;;;2.03;;
64986;SDS011;67903;52.108;9.358;2024-03-25T08:51:44;8.18;;;2.50;;
64986;SDS011;67903;52.108;9.358;2024-03-25T08:54:29;9.93;;;2.75;;
64986;SDS011;67903;52.108;9.358;2024-03-25T08:57:13;6.95;;;2.15;;
64986;SDS011;67903;52.108;9.358;2024-03-25T08:59:58;7.18;;;2.40;;
64986;SDS011;67903;52.108;9.358;2024-03-25T09:02:43;7.78;;;2.40;;
64986;SDS011;67903;52.108;9.358;2024-03-25T09:05:27;10.50;;;2.58;;
64986;SDS011;67903;52.108;9.358;2024-03-25T09:08:13;7.57;;;2.13;;
64986;SDS011;67903;52.108;9.358;2024-03-25T09:10:58;7.25;;;1.90;;
64986;SDS011;67903;52.108;9.358;2024-03-25T09:13:50;8.32;;;2.10;;
64986;SDS011;67903;52.108;9.358;2024-03-25T09:16:35;7.68;;;2.30;;
64986;SDS011;67903;52.108;9.358;2024-03-25T09:19:20;7.60;;;1.92;;
64986;SDS011;67903;52.108;9.358;2024-03-25T09:22:04;6.78;;;2.08;;
64986;SDS011;67903;52.108;9.358;2024-03-25T09:24:49;6.13;;;2.03;;
64986;SDS011;67903;52.108;9.358;2024-03-25T09:27:34;6.63;;;2.70;;
64986;SDS011;67903;52.108;9.358;2024-03-25T09:30:18;8.00;;;2.53;;
64986;SDS011;67903;52.108;9.358;2024-03-25T09:33:03;6.80;;;2.08;;
64986;SDS011;67903;52.108;9.358;2024-03-25T09:35:47;7.40;;;1.98;;
64986;SDS011;67903;52.108;9.358;2024-03-25T09:38:32;6.72;;;2.03;;
64986;SDS011;67903;52.108;9.358;2024-03-25T09:41:17;5.80;;;1.75;;
64986;SDS011;67903;52.108;9.358;2024-03-25T09:44:02;6.43;;;2.05;;
64986;SDS011;67903;52.108;9.358;2024-03-25T09:46:50;5.63;;;2.22;;
64986;SDS011;67903;52.108;9.358;2024-03-25T09:49:35;4.18;;;1.90;;
64986;SDS011;67903;52.108;9.358;2024-03-25T09:52:21;6.00;;;1.75;;
64986;SDS011;67903;52.108;9.358;2024-03-25T09:55:05;7.38;;;1.88;;
64986;SDS011;67903;52.108;9.358;2024-03-25T09:57:51;6.32;;;1.95;;
64986;SDS011;67903;52.108;9.358;2024-03-25T10:00:36;3.50;;;1.67;;
64986;SDS011;67903;52.108;9.358;2024-03-25T10:03:21;5.68;;;2.10;;
64986;SDS011;67903;52.108;9.358;2024-03-25T10:06:05;6.00;;;2.00;;
64986;SDS011;67903;52.108;9.358;2024-03-25T10:08:55;4.18;;;1.60;;
64986;SDS011;67903;52.108;9.358;2024-03-25T10:11:41;5.97;;;2.38;;
64986;SDS011;67903;52.108;9.358;2024-03-25T10:14:26;6.05;;;2.00;;
64986;SDS011;67903;52.108;9.358;2024-03-25T10:17:11;9.32;;;2.33;;
64986;SDS011;67903;52.108;9.358;2024-03-25T10:19:56;5.07;;;2.08;;
64986;SDS011;67903;52.108;9.358;2024-03-25T10:22:41;4.25;;;1.60;;
64986;SDS011;67903;52.108;9.358;2024-03-25T10:25:27;5.18;;;2.08;;
64986;SDS011;67903;52.108;9.358;2024-03-25T10:28:12;6.05;;;2.25;;
64986;SDS011;67903;52.108;9.358;2024-03-25T10:31:02;4.43;;;1.88;;
64986;SDS011;67903;52.108;9.358;2024-03-25T10:33:48;3.60;;;1.80;;
64986;SDS011;67903;52.108;9.358;2024-03-25T10:36:33;4.18;;;1.70;;
64986;SDS011;67903;52.108;9.358;2024-03-25T10:39:18;4.32;;;2.03;;
64986;SDS011;67903;52.108;9.358;2024-03-25T10:42:07;4.82;;;1.70;;
64986;SDS011;67903;52.108;9.358;2024-03-25T10:44:57;6.35;;;2.20;;
64986;SDS011;67903;52.108;9.358;2024-03-25T10:47:42;4.93;;;2.00;;
64986;SDS011;67903;52.108;9.358;2024-03-25T10:50:28;5.88;;;2.22;;
64986;SDS011;67903;52.108;9.358;2024-03-25T10:53:14;6.00;;;2.20;;
64986;SDS011;67903;52.108;9.358;2024-03-25T10:56:01;4.78;;;1.60;;
64986;SDS011;67903;52.108;9.358;2024-03-25T10:58:49;5.18;;;1.60;;
64986;SDS011;67903;52.108;9.358;2024-03-25T11:01:34;6.15;;;1.80;;
64986;SDS011;67903;52.108;9.358;2024-03-25T11:04:20;6.45;;;2.30;;
64986;SDS011;67903;52.108;9.358;2024-03-25T11:07:09;6.30;;;1.85;;
64986;SDS011;67903;52.108;9.358;2024-03-25T11:10:04;5.60;;;1.80;;
64986;SDS011;67903;52.108;9.358;2024-03-25T11:12:52;5.30;;;1.67;;
64986;SDS011;67903;52.108;9.358;2024-03-25T11:15:41;5.47;;;1.80;;
64986;SDS011;67903;52.108;9.358;2024-03-25T11:18:27;3.67;;;1.75;;
64986;SDS011;67903;52.108;9.358;2024-03-25T11:21:13;3.50;;;1.38;;
64986;SDS011;67903;52.108;9.358;2024-03-25T11:24:06;4.78;;;1.70;;
64986;SDS011;67903;52.108;9.358;2024-03-25T11:26:51;7.20;;;2.20;;
64986;SDS011;67903;52.108;9.358;2024-03-25T11:29:37;6.65;;;2.22;;
64986;SDS011;67903;52.108;9.358;2024-03-25T11:32:21;7.90;;;2.38;;
64986;SDS011;67903;52.108;9.358;2024-03-25T11:35:06;5.43;;;2.25;;
64986;SDS011;67903;52.108;9.358;2024-03-25T11:37:51;12.07;;;2.42;;
64986;SDS011;67903;52.108;9.358;2024-03-25T11:40:36;6.60;;;2.20;;
64986;SDS011;67903;52.108;9.358;2024-03-25T11:43:21;6.88;;;2.40;;
64986;SDS011;67903;52.108;9.358;2024-03-25T11:46:06;5.13;;;2.00;;
64986;SDS011;67903;52.108;9.358;2024-03-25T11:48:52;5.30;;;1.70;;
64986;SDS011;67903;52.108;9.358;2024-03-25T11:51:37;4.43;;;2.00;;
64986;SDS011;67903;52.108;9.358;2024-03-25T11:54:27;5.13;;;2.20;;
64986;SDS011;67903;52.108;9.358;2024-03-25T11:57:12;4.13;;;2.28;;
64986;SDS011;67903;52.108;9.358;2024-03-25T11:59:57;5.95;;;2.15;;
64986;SDS011;67903;52.108;9.358;2024-03-25T12:02:45;5.13;;;2.17;;
64986;SDS011;67903;52.108;9.358;2024-03-25T12:05:34;5.30;;;2.17;;
64986;SDS011;67903;52.108;9.358;2024-03-25T12:08:18;7.38;;;2.35;;
64986;SDS011;67903;52.108;9.358;2024-03-25T12:11:03;3.85;;;2.15;;
64986;SDS011;67903;52.108;9.358;2024-03-25T12:14:02;4.50;;;2.38;;
64986;SDS011;67903;52.108;9.358;2024-03-25T12:16:48;3.38;;;1.85;;
64986;SDS011;67903;52.108;9.358;2024-03-25T12:19:34;4.85;;;2.00;;
64986;SDS011;67903;52.108;9.358;2024-03-25T12:22:19;3.67;;;2.08;;
64986;SDS011;67903;52.108;9.358;2024-03-25T12:25:04;6.88;;;1.88;;
64986;SDS011;67903;52.108;9.358;2024-03-25T12:27:50;5.25;;;1.80;;
64986;SDS011;67903;52.108;9.358;2024-03-25T12:30:53;5.78;;;1.88;;
64986;SDS011;67903;52.108;9.358;2024-03-25T12:33:46;4.85;;;1.88;;
64986;SDS011;67903;52.108;9.358;2024-03-25T12:36:30;5.63;;;2.17;;
64986;SDS011;67903;52.108;9.358;2024-03-25T12:39:19;6.57;;;2.50;;
64986;SDS011;67903;52.108;9.358;2024-03-25T12:42:04;7.38;;;2.13;;
64986;SDS011;67903;52.108;9.358;2024-03-25T12:44:49;4.57;;;2.22;;
64986;SDS011;67903;52.108;9.358;2024-03-25T12:47:33;7.32;;;2.38;;
64986;SDS011;67903;52.108;9.358;2024-03-25T12:50:18;4.50;;;1.60;;
64986;SDS011;67903;52.108;9.358;2024-03-25T12:53:04;5.45;;;2.00;;
64986;SDS011;67903;52.108;9.358;2024-03-25T12:55:49;7.40;;;2.22;;
64986;SDS011;67903;52.108;9.358;2024-03-25T12:58:34;3.38;;;2.13;;
64986;SDS011;67903;52.108;9.358;2024-03-25T13:01:18;4.03;;;1.80;;
64986;SDS011;67903;52.108;9.358;2024-03-25T13:04:03;3.70;;;1.60;;
64986;SDS011;67903;52.108;9.358;2024-03-25T13:06:47;4.95;;;1.95;;
64986;SDS011;67903;52.108;9.358;2024-03-25T13:09:32;4.72;;;1.58;;
64986;SDS011;67903;52.108;9.358;2024-03-25T13:12:17;4.97;;;2.08;;
64986;SDS011;67903;52.108;9.358;2024-03-25T13:15:01;5.38;;;1.80;;
64986;SDS011;67903;52.108;9.358;2024-03-25T13:17:46;3.65;;;1.70;;
64986;SDS011;67903;52.108;9.358;2024-03-25T13:20:31;5.20;;;1.88;;
64986;SDS011;67903;52.108;9.358;2024-03-25T13:23:16;6.90;;;2.10;;
64986;SDS011;67903;52.108;9.358;2024-03-25T13:26:01;4.63;;;2.20;;
64986;SDS011;67903;52.108;9.358;2024-03-25T13:28:46;6.13;;;2.08;;
64986;SDS011;67903;52.108;9.358;2024-03-25T13:31:30;5.95;;;2.13;;
64986;SDS011;67903;52.108;9.358;2024-03-25T13:34:15;3.85;;;1.80;;
64986;SDS011;67903;52.108;9.358;2024-03-25T13:36:59;3.97;;;1.77;;
64986;SDS011;67903;52.108;9.358;2024-03-25T13:39:44;6.93;;;2.17;;
64986;SDS011;67903;52.108;9.358;2024-03-25T13:42:30;4.32;;;2.13;;
64986;SDS011;67903;52.108;9.358;2024-03-25T13:45:14;4.25;;;1.90;;
64986;SDS011;67903;52.108;9.358;2024-03-25T13:47:59;5.22;;;2.05;;
64986;SDS011;67903;52.108;9.358;2024-03-25T13:50:44;6.38;;;1.98;;
64986;SDS011;67903;52.108;9.358;2024-03-25T13:53:31;4.22;;;1.90;;
64986;SDS011;67903;52.108;9.358;2024-03-25T13:56:16;4.38;;;1.80;;
64986;SDS011;67903;52.108;9.358;2024-03-25T13:59:01;4.68;;;1.90;;
64986;SDS011;67903;52.108;9.358;2024-03-25T14:01:46;3.17;;;2.00;;
64986;SDS011;67903;52.108;9.358;2024-03-25T14:04:31;2.83;;;1.67;;
64986;SDS011;67903;52.108;9.358;2024-03-25T14:07:15;5.75;;;2.13;;
64986;SDS011;67903;52.108;9.358;2024-03-25T14:10:00;3.72;;;2.00;;
64986;SDS011;67903;52.108;9.358;2024-03-25T14:12:45;3.35;;;1.52;;
64986;SDS011;67903;52.108;9.358;2024-03-25T14:15:29;5.18;;;1.63;;
64986;SDS011;67903;52.108;9.358;2024-03-25T14:18:14;5.35;;;2.20;;
64986;SDS011;67903;52.108;9.358;2024-03-25T14:20:59;4.28;;;2.10;;
64986;SDS011;67903;52.108;9.358;2024-03-25T14:23:43;5.60;;;2.05;;
64986;SDS011;67903;52.108;9.358;2024-03-25T14:26:29;6.32;;;2.40;;
64986;SDS011;67903;52.108;9.358;2024-03-25T14:29:13;7.88;;;2.38;;
64986;SDS011;67903;52.108;9.358;2024-03-25T14:31:58;5.88;;;2.28;;
64986;SDS011;67903;52.108;9.358;2024-03-25T14:34:43;6.30;;;2.00;;
64986;SDS011;67903;52.108;9.358;2024-03-25T14:37:27;6.60;;;2.58;;
64986;SDS011;67903;52.108;9.358;2024-03-25T14:40:12;4.93;;;2.28;;
64986;SDS011;67903;52.108;9.358;2024-03-25T14:42:57;6.45;;;2.00;;
64986;SDS011;67903;52.108;9.358;2024-03-25T14:45:42;6.00;;;2.13;;
64986;SDS011;67903;52.108;9.358;2024-03-25T14:48:27;3.40;;;1.98;;
64986;SDS011;67903;52.108;9.358;2024-03-25T14:51:11;5.68;;;2.15;;
64986;SDS011;67903;52.108;9.358;2024-03-25T14:53:56;5.32;;;2.20;;
64986;SDS011;67903;52.108;9.358;2024-03-25T14:56:40;3.90;;;2.30;;
64986;SDS011;67903;52.108;9.358;2024-03-25T14:59:25;6.20;;;2.30;;
64986;SDS011;67903;52.108;9.358;2024-03-25T15:02:10;4.13;;;1.77;;
64986;SDS011;67903;52.108;9.358;2024-03-25T15:04:56;4.25;;;1.98;;
64986;SDS011;67903;52.108;9.358;2024-03-25T15:07:41;4.35;;;2.20;;
64986;SDS011;67903;52.108;9.358;2024-03-25T15:10:26;4.78;;;2.08;;
64986;SDS011;67903;52.108;9.358;2024-03-25T15:13:11;4.20;;;2.03;;
64986;SDS011;67903;52.108;9.358;2024-03-25T15:15:56;5.28;;;2.03;;
64986;SDS011;67903;52.108;9.358;2024-03-25T15:18:41;4.43;;;1.90;;
64986;SDS011;67903;52.108;9.358;2024-03-25T15:21:26;6.93;;;2.00;;
64986;SDS011;67903;52.108;9.358;2024-03-25T15:24:11;6.22;;;2.95;;
64986;SDS011;67903;52.108;9.358;2024-03-25T15:26:56;3.38;;;1.88;;
64986;SDS011;67903;52.108;9.358;2024-03-25T15:29:40;4.63;;;2.15;;
64986;SDS011;67903;52.108;9.358;2024-03-25T15:32:25;4.93;;;2.10;;
64986;SDS011;67903;52.108;9.358;2024-03-25T15:35:09;6.75;;;2.60;;
64986;SDS011;67903;52.108;9.358;2024-03-25T15:37:54;6.72;;;2.50;;
64986;SDS011;67903;52.108;9.358;2024-03-25T15:40:39;6.65;;;2.15;;
64986;SDS011;67903;52.108;9.358;2024-03-25T15:43:25;8.23;;;2.33;;
64986;SDS011;67903;52.108;9.358;2024-03-25T15:46:10;3.60;;;1.95;;
64986;SDS011;67903;52.108;9.358;2024-03-25T15:48:54;4.47;;;1.67;;
64986;SDS011;67903;52.108;9.358;2024-03-25T15:51:39;6.28;;;2.10;;
64986;SDS011;67903;52.108;9.358;2024-03-25T15:54:24;5.13;;;2.00;;
64986;SDS011;67903;52.108;9.358;2024-03-25T15:57:08;4.38;;;2.03;;
64986;SDS011;67903;52.108;9.358;2024-03-25T15:59:53;4.95;;;2.15;;
64986;SDS011;67903;52.108;9.358;2024-03-25T16:02:38;5.60;;;2.65;;
64986;SDS011;67903;52.108;9.358;2024-03-25T16:05:22;7.05;;;2.20;;
64986;SDS011;67903;52.108;9.358;2024-03-25T16:08:08;4.25;;;2.20;;
64986;SDS011;67903;52.108;9.358;2024-03-25T16:10:53;3.63;;;2.08;;
64986;SDS011;67903;52.108;9.358;2024-03-25T16:13:38;3.88;;;1.80;;
64986;SDS011;67903;52.108;9.358;2024-03-25T16:16:24;3.58;;;2.00;;
64986;SDS011;67903;52.108;9.358;2024-03-25T16:19:09;6.40;;;2.00;;
64986;SDS011;67903;52.108;9.358;2024-03-25T16:21:55;3.50;;;2.10;;
64986;SDS011;67903;52.108;9.358;2024-03-25T16:24:39;6.47;;;2.20;;
64986;SDS011;67903;52.108;9.358;2024-03-25T16:27:24;3.53;;;1.80;;
64986;SDS011;67903;52.108;9.358;2024-03-25T16:30:09;5.53;;;2.40;;
64986;SDS011;67903;52.108;9.358;2024-03-25T16:32:54;6.85;;;2.58;;
64986;SDS011;67903;52.108;9.358;2024-03-25T16:35:38;4.00;;;2.58;;